createdAt,value
2023-01-21T08:01:08.723Z,-1.07
2023-01-21T08:03:39.080Z,-1.10
2023-01-21T08:06:11.685Z,-1.05
2023-01-21T08:08:40.675Z,-0.94
2023-01-21T08:11:11.714Z,-0.78
2023-01-21T08:13:41.800Z,-0.75
2023-01-21T08:16:16.939Z,-0.75
2023-01-21T08:18:46.727Z,-0.73
2023-01-21T08:21:24.643Z,-0.66
2023-01-21T08:23:54.075Z,-0.63
2023-01-21T08:26:25.611Z,-0.59
2023-01-21T08:28:56.585Z,-0.56
2023-01-21T08:31:27.692Z,-0.44
2023-01-21T08:33:57.932Z,-0.39
2023-01-21T08:36:27.140Z,-0.26
2023-01-21T08:38:58.790Z,-0.12
2023-01-21T08:41:28.106Z,-0.10
2023-01-21T08:43:57.176Z,-0.04
2023-01-21T08:46:28.532Z,0.02
2023-01-21T08:48:58.069Z,0.03
2023-01-21T08:51:27.661Z,0.13
2023-01-21T08:53:58.491Z,0.25
2023-01-21T08:56:27.735Z,0.34
2023-01-21T08:58:58.766Z,0.46
2023-01-21T09:01:29.307Z,0.58
2023-01-21T09:03:58.967Z,0.71
2023-01-21T09:06:30.508Z,0.82
2023-01-21T09:09:00.319Z,1.04
2023-01-21T09:11:31.283Z,1.17
2023-01-21T09:14:03.840Z,1.23
2023-01-21T09:16:34.179Z,1.25
2023-01-21T09:19:04.381Z,1.26
2023-01-21T09:21:35.881Z,1.32
2023-01-21T09:24:05.226Z,1.37
2023-01-21T09:26:34.897Z,1.51
2023-01-21T09:29:04.899Z,1.73
2023-01-21T09:31:34.954Z,1.91
2023-01-21T09:34:06.556Z,2.09
2023-01-21T09:36:37.037Z,2.11
2023-01-21T09:39:08.426Z,2.31
2023-01-21T09:41:40.688Z,2.36
2023-01-21T09:44:27.708Z,2.43
2023-01-21T09:47:08.428Z,2.62
2023-01-21T09:49:45.975Z,2.78
2023-01-21T09:52:28.742Z,2.97
2023-01-21T09:55:00.496Z,2.93
2023-01-21T09:58:18.690Z,2.97
2023-01-21T10:00:54.004Z,3.12
2023-01-21T10:03:35.524Z,3.24
2023-01-21T10:06:32.175Z,3.19
2023-01-21T10:09:33.129Z,2.89
2023-01-21T10:12:25.238Z,3.00
2023-01-21T10:15:26.030Z,2.99
2023-01-21T10:18:01.383Z,3.03
2023-01-21T10:20:37.721Z,3.01
2023-01-21T10:23:18.232Z,3.00
2023-01-21T10:25:50.206Z,3.50
2023-01-21T10:28:24.796Z,3.88
2023-01-21T10:30:58.460Z,4.21
2023-01-21T10:33:32.391Z,3.87
2023-01-21T10:36:46.926Z,3.70
2023-01-21T10:39:32.831Z,3.60
2023-01-21T10:42:30.038Z,3.53
2023-01-21T10:45:08.399Z,3.09
2023-01-21T10:47:48.362Z,3.25
2023-01-21T10:50:34.412Z,3.25
2023-01-21T10:53:18.337Z,3.10
2023-01-21T10:56:18.476Z,3.26
2023-01-21T10:58:52.639Z,3.07
2023-01-21T11:01:29.454Z,3.38
2023-01-21T11:04:05.469Z,3.19
2023-01-21T11:06:36.771Z,3.30
2023-01-21T11:09:13.336Z,3.30
2023-01-21T11:11:43.014Z,3.27
2023-01-21T11:14:12.012Z,3.24
2023-01-21T11:16:47.695Z,3.05
2023-01-21T11:19:24.221Z,2.98
2023-01-21T11:22:03.909Z,3.01
2023-01-21T11:24:45.446Z,2.92
2023-01-21T11:27:22.400Z,2.75
2023-01-21T11:29:51.867Z,2.85
2023-01-21T11:32:27.550Z,2.90
2023-01-21T11:35:05.878Z,3.00
2023-01-21T11:37:36.010Z,3.49
2023-01-21T11:40:20.777Z,3.91
2023-01-21T11:42:51.754Z,4.11
2023-01-21T11:45:32.823Z,3.83
2023-01-21T11:48:02.197Z,3.62
2023-01-21T11:50:34.802Z,3.69
2023-01-21T11:53:13.182Z,3.76
2023-01-21T11:55:47.357Z,3.72
2023-01-21T11:58:21.618Z,3.84
2023-01-21T12:00:53.151Z,3.50
2023-01-21T12:03:26.101Z,3.58
2023-01-21T12:05:55.692Z,3.51
2023-01-21T12:08:27.890Z,3.42
2023-01-21T12:11:02.146Z,3.29
2023-01-21T12:13:42.296Z,3.27
2023-01-21T12:16:33.381Z,3.28
2023-01-21T12:19:28.111Z,3.22
2023-01-21T12:22:29.320Z,3.29
2023-01-21T12:25:23.848Z,3.43
2023-01-21T12:28:28.207Z,3.50
2023-01-21T12:31:12.305Z,3.53
2023-01-21T12:33:51.149Z,3.42
2023-01-21T12:36:29.199Z,3.45
2023-01-21T12:39:17.281Z,3.31
2023-01-21T12:41:56.589Z,3.30
2023-01-21T12:44:36.464Z,3.18
2023-01-21T12:47:17.845Z,3.28
2023-01-21T12:50:17.195Z,3.27
2023-01-21T12:52:58.531Z,3.16
2023-01-21T12:55:39.866Z,3.23
2023-01-21T12:58:17.232Z,3.40
2023-01-21T13:00:51.524Z,3.22
2023-01-21T13:03:30.663Z,3.20
2023-01-21T13:06:07.605Z,3.32
2023-01-21T13:08:52.452Z,3.33
2023-01-21T13:11:24.177Z,3.38
2023-01-21T13:14:18.125Z,3.41
2023-01-21T13:16:53.692Z,3.32
2023-01-21T13:19:22.095Z,3.42
2023-01-21T13:21:59.205Z,3.26
2023-01-21T13:24:34.968Z,3.37
2023-01-21T13:27:17.881Z,3.43
2023-01-21T13:29:56.221Z,3.40
2023-01-21T13:32:42.154Z,3.56
2023-01-21T13:35:30.727Z,3.32
2023-01-21T13:38:19.511Z,3.48
2023-01-21T13:41:03.539Z,3.56
2023-01-21T13:44:11.147Z,3.42
2023-01-21T13:47:01.444Z,3.42
2023-01-21T13:50:18.510Z,3.39
2023-01-21T13:53:12.645Z,3.32
2023-01-21T13:56:03.847Z,3.16
2023-01-21T13:58:43.273Z,3.10
2023-01-21T14:01:19.340Z,3.07
2023-01-21T14:03:56.944Z,2.99
2023-01-21T14:06:34.681Z,3.12
2023-01-21T14:09:08.808Z,2.92
2023-01-21T14:11:45.376Z,3.05
2023-01-21T14:15:11.294Z,3.14
2023-01-21T14:18:17.508Z,2.95
2023-01-21T14:21:23.825Z,2.95
2023-01-21T14:24:12.390Z,2.88
2023-01-21T14:27:15.548Z,2.77
2023-01-21T14:29:52.307Z,2.76
2023-01-21T14:32:28.954Z,2.58
2023-01-21T14:35:15.244Z,2.60
2023-01-21T14:37:53.125Z,2.57
2023-01-21T14:40:30.250Z,2.60
2023-01-21T14:42:59.220Z,2.53
2023-01-21T14:45:57.410Z,2.46
2023-01-21T14:48:41.364Z,2.58
2023-01-21T14:51:22.345Z,2.53
2023-01-21T14:53:53.688Z,2.49
2023-01-21T14:56:27.829Z,2.48
2023-01-21T14:58:59.780Z,2.50
2023-01-21T15:01:40.231Z,2.52
2023-01-21T15:04:25.955Z,2.56
2023-01-21T15:06:58.830Z,2.55
2023-01-21T15:09:34.128Z,2.57
2023-01-21T15:12:08.314Z,2.57
2023-01-21T15:14:41.725Z,2.58
2023-01-21T15:18:03.470Z,2.51
2023-01-21T15:20:49.669Z,2.43
2023-01-21T15:23:37.794Z,2.41
2023-01-21T15:26:30.444Z,2.41
2023-01-21T15:29:32.940Z,2.37
2023-01-21T15:32:23.355Z,2.41
2023-01-21T15:34:55.760Z,2.43
2023-01-21T15:37:26.847Z,2.43
2023-01-21T15:40:01.631Z,2.45
2023-01-21T15:42:48.013Z,2.40
2023-01-21T15:45:35.730Z,2.42
2023-01-21T15:48:41.706Z,2.35
2023-01-21T15:51:30.969Z,2.30
2023-01-21T15:54:21.158Z,2.25
2023-01-21T15:57:07.557Z,2.27
2023-01-21T16:00:09.297Z,2.24
2023-01-21T16:02:56.051Z,2.27
2023-01-21T16:05:38.849Z,2.21
2023-01-21T16:08:26.399Z,2.26
2023-01-21T16:11:17.437Z,2.17
2023-01-21T16:13:58.812Z,2.19
2023-01-21T16:16:53.425Z,2.14
2023-01-21T16:19:28.698Z,2.12
2023-01-21T16:22:05.108Z,2.11
2023-01-21T16:24:39.631Z,2.17
2023-01-21T16:27:20.054Z,2.17
2023-01-21T16:29:48.467Z,2.10
2023-01-21T16:32:21.742Z,2.16
2023-01-21T16:34:51.714Z,2.13
2023-01-21T16:37:23.840Z,2.08
2023-01-21T16:39:57.594Z,2.11
2023-01-21T16:42:46.772Z,2.09
2023-01-21T16:45:20.058Z,2.02
2023-01-21T16:47:57.647Z,1.98
2023-01-21T16:50:32.021Z,1.94
2023-01-21T16:53:08.888Z,1.99
2023-01-21T16:55:47.001Z,1.97
2023-01-21T16:58:29.705Z,1.94
2023-01-21T17:01:13.562Z,1.81
2023-01-21T17:03:42.808Z,1.87
2023-01-21T17:06:21.216Z,1.80
2023-01-21T17:08:55.333Z,1.83
2023-01-21T17:11:24.692Z,1.67
2023-01-21T17:13:54.236Z,1.66
2023-01-21T17:16:30.300Z,1.76
2023-01-21T17:19:04.350Z,1.78
2023-01-21T17:21:43.765Z,1.71
2023-01-21T17:24:22.149Z,1.65
2023-01-21T17:26:54.645Z,1.68
2023-01-21T17:29:28.339Z,1.63
2023-01-21T17:31:59.621Z,1.71
2023-01-21T17:34:31.085Z,1.81
2023-01-21T17:37:03.192Z,1.77
2023-01-21T17:40:02.748Z,1.76
2023-01-21T17:42:40.437Z,1.75
2023-01-21T17:45:23.983Z,1.78
2023-01-21T17:48:08.600Z,1.77
2023-01-21T17:50:38.275Z,1.75
2023-01-21T17:53:20.963Z,1.77
2023-01-21T17:56:01.067Z,1.84
2023-01-21T17:58:46.960Z,1.83
2023-01-21T18:01:18.964Z,1.77
2023-01-21T18:03:48.071Z,1.75
2023-01-21T18:06:26.007Z,1.78
2023-01-21T18:08:57.874Z,1.83
2023-01-21T18:11:26.575Z,1.71
2023-01-21T18:13:55.351Z,1.80
2023-01-21T18:16:23.878Z,1.83
2023-01-21T18:18:54.285Z,1.74
2023-01-21T18:21:23.237Z,1.72
2023-01-21T18:23:51.648Z,1.80
2023-01-21T18:26:31.476Z,1.74
2023-01-21T18:29:00.887Z,1.84
2023-01-21T18:31:29.276Z,1.78
2023-01-21T18:33:57.953Z,1.72
2023-01-21T18:36:29.922Z,1.67
2023-01-21T18:38:58.303Z,1.66
2023-01-21T18:41:27.964Z,1.72
2023-01-21T18:43:58.940Z,1.74
2023-01-21T18:46:27.729Z,1.79
2023-01-21T18:48:56.279Z,1.86
2023-01-21T18:51:24.892Z,1.85
2023-01-21T18:53:53.687Z,1.78
2023-01-21T18:56:22.816Z,1.80
2023-01-21T18:58:52.501Z,1.82
2023-01-21T19:01:23.750Z,1.77
2023-01-21T19:03:55.439Z,1.76
2023-01-21T19:06:26.216Z,1.77
2023-01-21T19:08:55.461Z,1.74
2023-01-21T19:11:24.280Z,1.69
2023-01-21T19:13:54.432Z,1.66
2023-01-21T19:16:25.254Z,1.65
2023-01-21T19:18:54.615Z,1.61
2023-01-21T19:21:23.148Z,1.65
2023-01-21T19:23:52.495Z,1.67
2023-01-21T19:26:21.995Z,1.64
2023-01-21T19:28:51.601Z,1.63
2023-01-21T19:31:22.237Z,1.66
2023-01-21T19:33:51.304Z,1.74
2023-01-21T19:36:25.951Z,1.70
2023-01-21T19:38:59.665Z,1.74
2023-01-21T19:41:29.407Z,1.72
2023-01-21T19:43:58.040Z,1.70
2023-01-21T19:46:29.671Z,1.65
2023-01-21T19:49:00.878Z,1.65
2023-01-21T19:51:32.072Z,1.65
2023-01-21T19:54:01.129Z,1.62
2023-01-21T19:56:30.426Z,1.68
2023-01-21T19:58:59.820Z,1.71
2023-01-21T20:01:30.885Z,1.67
2023-01-21T20:04:01.083Z,1.69
2023-01-21T20:06:40.545Z,1.74
2023-01-21T20:09:19.130Z,1.71
2023-01-21T20:11:48.678Z,1.73
2023-01-21T20:14:18.991Z,1.71
2023-01-21T20:16:53.304Z,1.64
2023-01-21T20:19:23.712Z,1.72
2023-01-21T20:22:02.145Z,1.75
2023-01-21T20:24:34.084Z,1.73
2023-01-21T20:27:08.588Z,1.65
2023-01-21T20:29:44.401Z,1.72
2023-01-21T20:32:14.880Z,1.78
2023-01-21T20:34:43.589Z,1.81
2023-01-21T20:37:16.726Z,1.78
2023-01-21T20:39:50.242Z,1.72
2023-01-21T20:42:20.677Z,1.72
2023-01-21T20:44:49.046Z,1.75
2023-01-21T20:47:32.477Z,1.77
2023-01-21T20:50:17.390Z,1.72
2023-01-21T20:52:46.422Z,1.76
2023-01-21T20:55:20.828Z,1.76
2023-01-21T20:57:49.722Z,1.78
2023-01-21T21:00:21.833Z,1.77
2023-01-21T21:02:51.729Z,1.77
2023-01-21T21:05:20.483Z,1.77
2023-01-21T21:07:49.179Z,1.77
2023-01-21T21:10:25.421Z,1.77
2023-01-21T21:12:55.602Z,1.85
2023-01-21T21:15:24.121Z,1.71
2023-01-21T21:17:53.918Z,1.72
2023-01-21T21:20:26.728Z,1.74
2023-01-21T21:22:55.614Z,1.76
2023-01-21T21:25:27.635Z,1.77
2023-01-21T21:27:57.206Z,1.74
2023-01-21T21:30:28.722Z,1.80
2023-01-21T21:33:00.953Z,1.81
2023-01-21T21:35:32.388Z,1.80
2023-01-21T21:38:05.893Z,1.83
2023-01-21T21:40:35.833Z,1.84
2023-01-21T21:43:18.543Z,1.88
2023-01-21T21:46:01.171Z,1.85
2023-01-21T21:48:42.521Z,1.78
2023-01-21T21:51:13.890Z,1.85
2023-01-21T21:53:43.107Z,1.83
2023-01-21T21:56:16.712Z,1.81
2023-01-21T21:58:46.140Z,1.78
2023-01-21T22:01:19.477Z,1.84
2023-01-21T22:03:50.127Z,1.85
2023-01-21T22:06:20.844Z,1.87
2023-01-21T22:08:50.365Z,1.89
2023-01-21T22:11:22.339Z,1.86
2023-01-21T22:13:53.455Z,1.85
2023-01-21T22:16:25.511Z,1.93
2023-01-21T22:18:57.745Z,1.87
2023-01-21T22:21:28.876Z,1.85
2023-01-21T22:24:00.202Z,1.86
2023-01-21T22:26:30.029Z,1.85
2023-01-21T22:28:59.111Z,1.81
2023-01-21T22:31:31.324Z,1.83
2023-01-21T22:34:02.123Z,1.75
2023-01-21T22:36:32.274Z,1.62
2023-01-21T22:39:01.279Z,1.70
2023-01-21T22:41:30.779Z,1.65
2023-01-21T22:43:59.775Z,1.58
2023-01-21T22:46:33.916Z,1.54
2023-01-21T22:49:04.259Z,1.62
2023-01-21T22:51:33.132Z,1.64
2023-01-21T22:54:02.250Z,1.69
2023-01-21T22:56:49.955Z,1.68
2023-01-21T22:59:19.564Z,1.66
2023-01-21T23:01:51.354Z,1.70
2023-01-21T23:04:22.061Z,1.69
2023-01-21T23:06:56.079Z,1.75
2023-01-21T23:09:24.543Z,1.76
2023-01-21T23:11:53.403Z,1.75
2023-01-21T23:14:21.941Z,1.75
2023-01-21T23:16:52.531Z,1.78
2023-01-21T23:19:22.608Z,1.81
2023-01-21T23:21:51.156Z,1.84
2023-01-21T23:24:20.051Z,1.85
2023-01-21T23:26:48.427Z,1.85
2023-01-21T23:29:18.141Z,1.87
2023-01-21T23:31:48.752Z,1.92
2023-01-21T23:34:22.880Z,1.95
2023-01-21T23:36:52.641Z,1.90
2023-01-21T23:39:20.949Z,1.99
2023-01-21T23:41:49.253Z,1.98
2023-01-21T23:44:20.740Z,2.06
2023-01-21T23:46:49.135Z,2.09
2023-01-21T23:49:20.651Z,2.06
2023-01-21T23:51:50.343Z,2.11
2023-01-21T23:54:22.301Z,2.08
2023-01-21T23:56:50.728Z,2.20
2023-01-21T23:59:20.757Z,2.28
